createdAt,value
2019-02-15T00:00:32.858Z,3.40
2019-02-15T00:01:37.412Z,3.07
2019-02-15T00:02:41.869Z,3.63
2019-02-15T00:03:46.359Z,3.37
2019-02-15T00:04:50.814Z,3.20
2019-02-15T00:05:55.621Z,3.00
2019-02-15T00:07:00.097Z,3.20
2019-02-15T00:08:04.562Z,3.17
2019-02-15T00:09:09.033Z,3.17
2019-02-15T00:10:13.477Z,2.87
2019-02-15T00:11:17.958Z,2.87
2019-02-15T00:12:22.435Z,2.98
2019-02-15T00:13:26.927Z,3.00
2019-02-15T00:14:37.177Z,2.87
2019-02-15T00:15:41.654Z,2.80
2019-02-15T00:16:46.124Z,2.90
2019-02-15T00:17:52.301Z,2.60
2019-02-15T00:19:01.216Z,2.83
2019-02-15T00:20:10.121Z,2.55
2019-02-15T00:21:16.228Z,2.63
2019-02-15T00:22:20.716Z,2.57
2019-02-15T00:23:25.178Z,2.83
2019-02-15T00:24:29.649Z,2.90
2019-02-15T00:25:34.104Z,2.90
2019-02-15T00:26:38.587Z,2.93
2019-02-15T00:27:43.125Z,3.60
2019-02-15T00:28:47.703Z,3.33
2019-02-15T00:29:52.229Z,3.03
2019-02-15T00:30:56.668Z,3.10
2019-02-15T00:32:01.210Z,3.33
2019-02-15T00:33:05.738Z,3.00
2019-02-15T00:34:10.210Z,3.10
2019-02-15T00:35:14.688Z,3.37
2019-02-15T00:36:19.187Z,3.00
2019-02-15T00:37:23.736Z,3.23
2019-02-15T00:38:28.219Z,3.30
2019-02-15T00:39:32.679Z,3.37
2019-02-15T00:40:37.159Z,2.97
2019-02-15T00:41:41.616Z,3.57
2019-02-15T00:42:46.083Z,3.30
2019-02-15T00:43:50.817Z,3.50
2019-02-15T00:44:55.293Z,3.30
2019-02-15T00:46:04.117Z,3.52
2019-02-15T00:47:10.218Z,3.67
2019-02-15T00:48:18.977Z,3.52
2019-02-15T00:49:24.392Z,3.73
2019-02-15T00:50:30.569Z,3.92
2019-02-15T00:51:48.681Z,3.60
2019-02-15T00:52:54.784Z,3.85
2019-02-15T00:54:06.631Z,3.70
2019-02-15T00:55:29.133Z,3.43
2019-02-15T00:56:35.242Z,3.47
2019-02-15T00:57:50.216Z,3.50
2019-02-15T00:58:58.881Z,3.57
2019-02-15T01:00:05.251Z,3.70
2019-02-15T01:01:11.343Z,3.70
2019-02-15T01:02:17.457Z,3.53
2019-02-15T01:03:38.425Z,3.27
2019-02-15T01:04:53.443Z,3.10
2019-02-15T01:05:59.839Z,2.90
2019-02-15T01:07:09.043Z,3.40
2019-02-15T01:08:18.195Z,3.90
2019-02-15T01:09:33.208Z,3.20
2019-02-15T01:10:45.081Z,3.33
2019-02-15T01:11:54.264Z,3.60
2019-02-15T01:13:03.353Z,3.20
2019-02-15T01:14:07.806Z,2.92
2019-02-15T01:15:12.545Z,3.10
2019-02-15T01:16:17.010Z,3.47
2019-02-15T01:17:21.542Z,3.10
2019-02-15T01:18:26.054Z,2.83
2019-02-15T01:19:30.563Z,2.90
2019-02-15T01:20:35.045Z,2.80
2019-02-15T01:21:39.588Z,2.40
2019-02-15T01:22:44.046Z,2.43
2019-02-15T01:23:48.523Z,2.57
2019-02-15T01:24:53.001Z,2.33
2019-02-15T01:26:02.093Z,2.80
2019-02-15T01:27:10.863Z,2.83
2019-02-15T01:28:16.960Z,2.93
2019-02-15T01:29:29.233Z,2.40
2019-02-15T01:30:50.166Z,2.70
2019-02-15T01:32:08.389Z,2.33
2019-02-15T01:33:14.500Z,2.50
2019-02-15T01:34:23.577Z,2.33
2019-02-15T01:35:47.483Z,2.45
2019-02-15T01:36:53.678Z,2.40
2019-02-15T01:38:12.000Z,2.42
2019-02-15T01:39:30.183Z,2.20
2019-02-15T01:40:36.300Z,2.57
2019-02-15T01:41:45.182Z,2.00
2019-02-15T01:42:57.557Z,2.17
2019-02-15T01:44:06.380Z,2.50
2019-02-15T01:45:12.560Z,2.37
2019-02-15T01:46:18.675Z,2.33
2019-02-15T01:47:23.265Z,2.67
2019-02-15T01:48:27.730Z,2.52
2019-02-15T01:49:32.217Z,2.30
2019-02-15T01:50:36.666Z,2.47
2019-02-15T01:51:41.132Z,2.20
2019-02-15T01:52:45.590Z,1.93
2019-02-15T01:53:50.042Z,2.07
2019-02-15T01:54:54.517Z,2.22
2019-02-15T01:55:59.000Z,2.00
2019-02-15T01:57:03.472Z,2.20
2019-02-15T01:58:07.952Z,2.57
2019-02-15T01:59:12.406Z,2.50
2019-02-15T02:00:17.782Z,2.25
2019-02-15T02:01:23.632Z,2.42
2019-02-15T02:02:29.650Z,2.43
2019-02-15T02:03:34.117Z,2.60
2019-02-15T02:04:38.582Z,2.45
2019-02-15T02:05:43.065Z,2.60
2019-02-15T02:06:47.527Z,2.50
2019-02-15T02:07:52.033Z,2.72
2019-02-15T02:08:56.490Z,2.60
2019-02-15T02:10:01.066Z,2.73
2019-02-15T02:11:05.644Z,2.70
2019-02-15T02:12:10.405Z,2.60
2019-02-15T02:13:14.867Z,2.87
2019-02-15T02:14:19.351Z,2.80
2019-02-15T02:15:23.986Z,2.72
2019-02-15T02:16:28.552Z,2.80
2019-02-15T02:17:35.767Z,2.72
2019-02-15T02:18:40.245Z,3.20
2019-02-15T02:19:44.732Z,2.92
2019-02-15T02:20:49.294Z,2.98
2019-02-15T02:21:53.866Z,2.93
2019-02-15T02:22:58.330Z,3.10
2019-02-15T02:24:02.849Z,2.85
2019-02-15T02:25:08.142Z,2.97
2019-02-15T02:26:12.692Z,3.15
2019-02-15T02:27:17.213Z,3.00
2019-02-15T02:28:21.739Z,2.97
2019-02-15T02:29:26.183Z,3.00
2019-02-15T02:30:30.638Z,2.80
2019-02-15T02:31:35.091Z,2.73
2019-02-15T02:32:40.131Z,2.70
2019-02-15T02:33:44.611Z,2.80
2019-02-15T02:34:49.053Z,2.65
2019-02-15T02:35:53.591Z,3.00
2019-02-15T02:36:58.040Z,2.83
2019-02-15T02:38:02.530Z,2.73
2019-02-15T02:39:07.087Z,2.70
2019-02-15T02:40:11.548Z,2.80
2019-02-15T02:41:16.034Z,2.50
2019-02-15T02:42:20.492Z,2.60
2019-02-15T02:43:25.005Z,2.53
2019-02-15T02:44:29.479Z,2.70
2019-02-15T02:45:33.958Z,2.40
2019-02-15T02:46:38.490Z,2.80
2019-02-15T02:47:42.976Z,2.42
2019-02-15T02:48:47.472Z,2.72
2019-02-15T02:49:51.959Z,2.80
2019-02-15T02:50:56.483Z,2.83
2019-02-15T02:52:01.211Z,2.30
2019-02-15T02:53:05.705Z,2.57
2019-02-15T02:54:10.235Z,3.10
2019-02-15T02:55:14.715Z,3.30
2019-02-15T02:56:19.178Z,3.20
2019-02-15T02:57:23.733Z,3.43
2019-02-15T02:58:28.220Z,3.05
2019-02-15T02:59:32.717Z,3.60
2019-02-15T03:00:37.267Z,3.50
2019-02-15T03:01:41.731Z,4.00
2019-02-15T03:02:46.213Z,3.60
2019-02-15T03:03:50.679Z,3.40
2019-02-15T03:04:55.169Z,3.40
2019-02-15T03:05:59.651Z,3.97
2019-02-15T03:07:04.137Z,3.80
2019-02-15T03:08:08.636Z,3.83
2019-02-15T03:09:13.151Z,3.90
2019-02-15T03:10:20.240Z,3.80
2019-02-15T03:11:24.719Z,3.67
2019-02-15T03:12:29.197Z,3.58
2019-02-15T03:13:33.674Z,3.90
2019-02-15T03:14:38.136Z,3.75
2019-02-15T03:15:42.585Z,3.35
2019-02-15T03:16:47.088Z,3.55
2019-02-15T03:17:51.561Z,3.65
2019-02-15T03:18:56.027Z,3.87
2019-02-15T03:20:00.678Z,3.40
2019-02-15T03:21:05.198Z,3.58
2019-02-15T03:22:09.720Z,3.10
2019-02-15T03:23:14.263Z,3.17
2019-02-15T03:24:18.753Z,3.10
2019-02-15T03:25:23.272Z,3.37
2019-02-15T03:26:27.747Z,2.72
2019-02-15T03:27:32.294Z,3.10
2019-02-15T03:28:37.108Z,2.90
2019-02-15T03:29:41.646Z,3.60
2019-02-15T03:30:46.217Z,2.83
2019-02-15T03:31:50.681Z,3.00
2019-02-15T03:32:55.168Z,3.10
2019-02-15T03:33:59.805Z,2.73
2019-02-15T03:35:06.848Z,2.80
2019-02-15T03:36:12.979Z,2.50
2019-02-15T03:37:19.069Z,2.40
2019-02-15T03:38:25.167Z,2.58
2019-02-15T03:39:43.926Z,2.60
2019-02-15T03:40:48.474Z,2.52
2019-02-15T03:41:52.929Z,2.43
2019-02-15T03:42:57.399Z,2.50
2019-02-15T03:44:01.880Z,2.73
2019-02-15T03:45:08.179Z,2.47
2019-02-15T03:46:12.702Z,2.40
2019-02-15T03:47:18.793Z,2.75
2019-02-15T03:48:23.336Z,2.60
2019-02-15T03:49:27.842Z,2.50
2019-02-15T03:50:32.338Z,2.63
2019-02-15T03:51:36.894Z,2.40
2019-02-15T03:52:41.360Z,2.40
2019-02-15T03:53:45.836Z,2.60
2019-02-15T03:54:50.310Z,2.77
2019-02-15T03:55:55.259Z,2.60
2019-02-15T03:56:59.734Z,2.30
2019-02-15T03:58:04.215Z,2.70
2019-02-15T03:59:09.025Z,2.10
2019-02-15T04:00:13.870Z,2.23
2019-02-15T04:01:18.408Z,2.80
2019-02-15T04:02:22.942Z,2.60
2019-02-15T04:03:27.484Z,2.63
2019-02-15T04:04:31.948Z,2.80
2019-02-15T04:05:36.432Z,2.58
2019-02-15T04:06:40.923Z,2.65
2019-02-15T04:07:45.442Z,3.20
2019-02-15T04:08:50.089Z,2.50
2019-02-15T04:09:54.599Z,2.52
2019-02-15T04:10:59.087Z,2.75
2019-02-15T04:12:03.627Z,2.90
2019-02-15T04:13:08.075Z,2.80
2019-02-15T04:14:12.589Z,3.00
2019-02-15T04:15:17.089Z,3.00
2019-02-15T04:16:21.548Z,3.07
2019-02-15T04:17:26.132Z,3.00
2019-02-15T04:18:30.601Z,2.80
2019-02-15T04:19:35.081Z,2.77
2019-02-15T04:20:39.537Z,3.10
2019-02-15T04:21:44.019Z,2.97
2019-02-15T04:22:48.515Z,2.57
2019-02-15T04:23:53.002Z,2.63
2019-02-15T04:24:57.460Z,2.77
2019-02-15T04:26:01.999Z,2.87
2019-02-15T04:27:06.615Z,2.90
2019-02-15T04:28:11.099Z,3.07
2019-02-15T04:29:15.550Z,2.50
2019-02-15T04:30:20.120Z,2.97
2019-02-15T04:31:24.675Z,2.80
2019-02-15T04:32:29.171Z,3.17
2019-02-15T04:33:33.696Z,3.00
2019-02-15T04:34:38.168Z,2.80
2019-02-15T04:35:42.673Z,2.67
2019-02-15T04:36:47.176Z,3.00
2019-02-15T04:37:51.711Z,3.03
2019-02-15T04:38:56.218Z,2.87
2019-02-15T04:40:00.795Z,3.33
2019-02-15T04:41:05.313Z,3.05
2019-02-15T04:42:09.782Z,3.10
2019-02-15T04:43:14.251Z,3.10
2019-02-15T04:44:18.752Z,3.17
2019-02-15T04:45:23.330Z,3.00
2019-02-15T04:46:27.800Z,3.05
2019-02-15T04:47:32.275Z,2.80
2019-02-15T04:48:36.786Z,3.00
2019-02-15T04:49:41.269Z,3.17
2019-02-15T04:50:45.727Z,2.92
2019-02-15T04:51:50.187Z,3.17
2019-02-15T04:52:54.646Z,3.20
2019-02-15T04:53:59.124Z,2.83
2019-02-15T04:55:04.261Z,3.33
2019-02-15T04:56:08.728Z,3.13
2019-02-15T04:57:13.198Z,3.20
2019-02-15T04:58:17.658Z,3.10
2019-02-15T04:59:22.129Z,3.30
2019-02-15T05:00:27.381Z,3.40
2019-02-15T05:01:31.853Z,3.60
2019-02-15T05:02:36.305Z,3.40
2019-02-15T05:03:40.773Z,3.50
2019-02-15T05:04:45.240Z,2.80
2019-02-15T05:05:49.790Z,2.90
2019-02-15T05:06:54.288Z,3.50
2019-02-15T05:07:58.762Z,3.30
2019-02-15T05:09:04.454Z,3.57
2019-02-15T05:10:09.113Z,3.40
2019-02-15T05:11:13.643Z,3.20
2019-02-15T05:12:18.201Z,3.20
2019-02-15T05:13:22.693Z,3.20
2019-02-15T05:14:27.236Z,3.50
2019-02-15T05:15:31.697Z,3.37
2019-02-15T05:16:36.167Z,3.50
2019-02-15T05:17:40.627Z,3.10
2019-02-15T05:18:45.353Z,3.45
2019-02-15T05:19:49.904Z,3.55
2019-02-15T05:20:54.407Z,3.35
2019-02-15T05:21:58.851Z,3.08
2019-02-15T05:23:03.359Z,3.67
2019-02-15T05:24:07.818Z,3.17
2019-02-15T05:25:12.309Z,3.60
2019-02-15T05:26:16.780Z,3.13
2019-02-15T05:27:21.258Z,3.00
2019-02-15T05:28:25.749Z,2.95
2019-02-15T05:29:30.272Z,3.05
2019-02-15T05:30:34.808Z,3.23
2019-02-15T05:31:39.249Z,3.20
2019-02-15T05:32:43.768Z,3.37
2019-02-15T05:33:48.235Z,3.47
2019-02-15T05:34:52.771Z,3.30
2019-02-15T05:35:57.254Z,3.40
2019-02-15T05:37:01.722Z,3.70
2019-02-15T05:38:06.183Z,3.30
2019-02-15T05:39:10.641Z,3.43
2019-02-15T05:40:15.101Z,3.52
2019-02-15T05:41:19.567Z,3.50
2019-02-15T05:42:24.027Z,3.57
2019-02-15T05:43:28.512Z,3.47
2019-02-15T05:44:32.967Z,3.30
2019-02-15T05:45:37.431Z,3.33
2019-02-15T05:46:41.917Z,3.40
2019-02-15T05:47:46.454Z,3.47
2019-02-15T05:48:53.668Z,3.43
2019-02-15T05:49:58.149Z,3.47
2019-02-15T05:51:02.704Z,3.33
2019-02-15T05:52:07.261Z,3.22
2019-02-15T05:53:11.722Z,2.90
2019-02-15T05:54:16.470Z,3.95
2019-02-15T05:55:20.942Z,2.90
2019-02-15T05:56:25.416Z,3.45
2019-02-15T05:57:29.905Z,3.72
2019-02-15T05:58:34.364Z,3.10
2019-02-15T05:59:38.808Z,3.30
2019-02-15T06:00:43.314Z,3.37
2019-02-15T06:01:47.809Z,3.15
2019-02-15T06:02:52.364Z,3.27
2019-02-15T06:03:56.861Z,3.63
2019-02-15T06:05:01.429Z,2.93
2019-02-15T06:06:06.023Z,3.40
2019-02-15T06:07:10.531Z,3.90
2019-02-15T06:08:15.012Z,3.08
2019-02-15T06:09:19.484Z,3.30
2019-02-15T06:10:23.939Z,3.27
2019-02-15T06:11:28.444Z,3.03
2019-02-15T06:12:32.897Z,3.20
2019-02-15T06:13:37.427Z,3.40
2019-02-15T06:14:41.867Z,3.53
2019-02-15T06:15:46.422Z,3.27
2019-02-15T06:16:50.960Z,3.27
2019-02-15T06:17:55.437Z,3.40
2019-02-15T06:18:59.902Z,3.33
2019-02-15T06:20:05.129Z,3.47
2019-02-15T06:21:09.586Z,3.20
2019-02-15T06:22:14.071Z,3.27
2019-02-15T06:23:18.846Z,3.53
2019-02-15T06:24:23.330Z,3.47
2019-02-15T06:25:27.778Z,3.00
2019-02-15T06:26:32.277Z,3.45
2019-02-15T06:27:36.771Z,3.27
2019-02-15T06:28:41.259Z,3.15
2019-02-15T06:29:45.785Z,3.42
2019-02-15T06:30:50.370Z,3.20
2019-02-15T06:31:54.834Z,3.42
2019-02-15T06:32:59.327Z,3.33
2019-02-15T06:34:03.867Z,3.02
2019-02-15T06:35:08.460Z,3.50
2019-02-15T06:36:12.915Z,2.80
2019-02-15T06:37:17.683Z,2.97
2019-02-15T06:38:22.160Z,2.97
2019-02-15T06:39:26.626Z,3.43
2019-02-15T06:40:31.124Z,3.30
2019-02-15T06:41:35.584Z,3.37
2019-02-15T06:42:40.275Z,3.00
2019-02-15T06:43:44.734Z,3.45
2019-02-15T06:44:49.211Z,3.30
2019-02-15T06:45:53.839Z,3.55
2019-02-15T06:46:58.348Z,3.20
2019-02-15T06:48:02.800Z,3.37
2019-02-15T06:49:07.440Z,3.37
2019-02-15T06:50:11.988Z,3.30
2019-02-15T06:51:16.453Z,3.73
2019-02-15T06:52:20.996Z,2.87
2019-02-15T06:53:25.542Z,3.00
2019-02-15T06:54:30.081Z,3.47
2019-02-15T06:55:34.545Z,3.40
2019-02-15T06:56:39.052Z,3.33
2019-02-15T06:57:43.540Z,3.10
2019-02-15T06:58:55.581Z,3.22
2019-02-15T07:00:19.620Z,3.45
2019-02-15T07:01:31.418Z,3.12
2019-02-15T07:02:37.529Z,2.90
2019-02-15T07:03:55.710Z,3.07
2019-02-15T07:05:13.325Z,3.12
2019-02-15T07:06:17.782Z,3.22
2019-02-15T07:07:22.255Z,3.30
2019-02-15T07:08:26.781Z,3.70
2019-02-15T07:09:31.304Z,3.43
2019-02-15T07:10:35.908Z,3.10
2019-02-15T07:11:40.382Z,3.33
2019-02-15T07:12:44.840Z,3.70
2019-02-15T07:13:49.298Z,3.47
2019-02-15T07:14:53.799Z,3.37
2019-02-15T07:15:58.286Z,3.67
2019-02-15T07:17:03.128Z,3.30
2019-02-15T07:18:07.599Z,3.47
2019-02-15T07:19:12.067Z,3.77
2019-02-15T07:20:16.542Z,3.60
2019-02-15T07:21:21.039Z,3.47
2019-02-15T07:22:25.573Z,3.27
2019-02-15T07:23:30.049Z,3.37
2019-02-15T07:24:34.553Z,3.17
2019-02-15T07:25:39.001Z,3.63
2019-02-15T07:26:43.825Z,3.10
2019-02-15T07:27:48.276Z,3.60
2019-02-15T07:28:52.778Z,3.27
2019-02-15T07:29:57.276Z,3.33
2019-02-15T07:31:01.792Z,3.47
2019-02-15T07:32:06.364Z,3.58
2019-02-15T07:33:10.825Z,3.62
2019-02-15T07:34:15.315Z,3.27
2019-02-15T07:35:19.858Z,3.40
2019-02-15T07:36:24.317Z,3.58
2019-02-15T07:37:28.815Z,3.67
2019-02-15T07:38:34.189Z,3.90
2019-02-15T07:39:38.743Z,4.30
2019-02-15T07:40:43.245Z,4.95
2019-02-15T07:41:48.040Z,4.67
2019-02-15T07:42:52.647Z,4.57
2019-02-15T07:43:57.179Z,3.80
2019-02-15T07:45:01.690Z,3.83
2019-02-15T07:46:06.198Z,3.20
2019-02-15T07:47:10.706Z,3.43
2019-02-15T07:48:15.179Z,3.62
2019-02-15T07:49:26.701Z,3.43
2019-02-15T07:50:25.922Z,3.60
2019-02-15T07:51:30.389Z,3.00
2019-02-15T07:52:34.862Z,3.73
2019-02-15T07:53:39.342Z,3.33
2019-02-15T07:54:43.863Z,3.57
2019-02-15T07:55:48.364Z,3.23
2019-02-15T07:56:52.831Z,3.65
2019-02-15T07:57:57.278Z,3.30
2019-02-15T07:59:01.781Z,3.50
2019-02-15T08:00:14.776Z,3.55
2019-02-15T08:01:19.242Z,3.62
2019-02-15T08:02:23.714Z,3.55
2019-02-15T08:03:28.208Z,3.85
2019-02-15T08:04:32.686Z,3.45
2019-02-15T08:05:37.142Z,3.50
2019-02-15T08:06:41.647Z,3.87
2019-02-15T08:07:46.144Z,3.83
2019-02-15T08:08:50.598Z,3.47
2019-02-15T08:09:55.053Z,3.40
2019-02-15T08:10:59.509Z,3.87
2019-02-15T08:12:04.097Z,3.40
2019-02-15T08:13:08.631Z,3.58
2019-02-15T08:14:15.104Z,3.70
2019-02-15T08:15:19.337Z,3.70
2019-02-15T08:16:23.844Z,3.10
2019-02-15T08:17:28.310Z,3.57
2019-02-15T08:18:32.801Z,3.35
2019-02-15T08:19:37.267Z,3.60
2019-02-15T08:20:42.064Z,3.80
2019-02-15T08:21:46.537Z,3.87
2019-02-15T08:22:51.007Z,3.80
2019-02-15T08:23:55.467Z,3.40
2019-02-15T08:24:59.939Z,3.80
2019-02-15T08:26:04.586Z,3.40
2019-02-15T08:27:09.086Z,3.90
2019-02-15T08:28:13.565Z,3.40
2019-02-15T08:29:18.997Z,3.85
2019-02-15T08:30:23.488Z,3.90
2019-02-15T08:31:27.941Z,3.67
2019-02-15T08:32:34.462Z,3.42
2019-02-15T08:33:38.599Z,3.60
2019-02-15T08:34:43.113Z,3.70
2019-02-15T08:35:47.606Z,3.83
2019-02-15T08:36:52.090Z,3.65
2019-02-15T08:37:56.635Z,3.95
2019-02-15T08:39:01.098Z,3.60
2019-02-15T08:40:08.322Z,4.07
2019-02-15T08:41:12.828Z,3.67
2019-02-15T08:42:17.316Z,4.00
2019-02-15T08:43:21.789Z,3.65
2019-02-15T08:44:26.261Z,3.83
2019-02-15T08:45:30.775Z,3.57
2019-02-15T08:46:35.306Z,3.63
2019-02-15T08:47:40.127Z,4.00
2019-02-15T08:48:46.530Z,4.22
2019-02-15T08:49:50.763Z,3.40
2019-02-15T08:50:55.337Z,3.55
2019-02-15T08:52:00.077Z,3.90
2019-02-15T08:53:04.564Z,3.87
2019-02-15T08:54:09.035Z,3.70
2019-02-15T08:55:13.518Z,4.17
2019-02-15T08:56:17.972Z,3.83
2019-02-15T08:57:22.449Z,3.43
2019-02-15T08:58:26.955Z,3.77
2019-02-15T08:59:31.418Z,3.57
2019-02-15T09:00:35.892Z,3.80
2019-02-15T09:01:40.328Z,3.80
2019-02-15T09:02:44.839Z,3.83
2019-02-15T09:03:49.305Z,3.40
2019-02-15T09:04:53.753Z,3.80
2019-02-15T09:05:58.691Z,3.70
2019-02-15T09:07:03.146Z,3.70
2019-02-15T09:08:07.622Z,3.40
2019-02-15T09:09:12.347Z,3.33
2019-02-15T09:10:16.862Z,3.42
2019-02-15T09:11:21.473Z,3.53
2019-02-15T09:12:25.927Z,3.83
2019-02-15T09:13:30.395Z,4.27
2019-02-15T09:14:34.900Z,3.93
2019-02-15T09:15:39.369Z,4.37
2019-02-15T09:16:43.831Z,4.07
2019-02-15T09:17:48.297Z,3.87
2019-02-15T09:18:53.096Z,3.90
2019-02-15T09:19:57.569Z,4.30
2019-02-15T09:21:02.042Z,3.97
2019-02-15T09:22:06.589Z,4.17
2019-02-15T09:23:12.308Z,3.90
2019-02-15T09:24:16.929Z,4.08
2019-02-15T09:25:21.421Z,4.00
2019-02-15T09:26:25.943Z,4.00
2019-02-15T09:27:32.053Z,3.97
2019-02-15T09:28:43.942Z,3.77
2019-02-15T09:29:48.415Z,4.20
2019-02-15T09:30:53.384Z,3.90
2019-02-15T09:31:58.115Z,3.85
2019-02-15T09:33:02.579Z,4.05
2019-02-15T09:34:07.051Z,3.90
2019-02-15T09:35:12.276Z,3.98
2019-02-15T09:36:16.770Z,4.05
2019-02-15T09:37:21.246Z,4.50
2019-02-15T09:38:25.699Z,4.08
2019-02-15T09:39:30.161Z,3.97
2019-02-15T09:40:34.648Z,4.27
2019-02-15T09:41:39.185Z,4.87
2019-02-15T09:42:43.698Z,3.85
2019-02-15T09:43:48.198Z,4.00
2019-02-15T09:44:52.692Z,4.10
2019-02-15T09:45:57.155Z,4.07
2019-02-15T09:47:01.636Z,3.90
2019-02-15T09:48:06.178Z,4.05
2019-02-15T09:49:10.663Z,4.20
2019-02-15T09:50:15.819Z,4.40
2019-02-15T09:51:20.283Z,3.95
2019-02-15T09:52:24.747Z,4.47
2019-02-15T09:53:29.234Z,3.80
2019-02-15T09:54:33.703Z,4.23
2019-02-15T09:55:38.208Z,3.80
2019-02-15T09:56:42.918Z,4.47
2019-02-15T09:57:47.467Z,4.10
2019-02-15T09:58:52.035Z,3.80
2019-02-15T09:59:56.507Z,4.10
2019-02-15T10:01:01.009Z,4.10
2019-02-15T10:02:05.545Z,3.75
2019-02-15T10:03:10.078Z,3.60
2019-02-15T10:04:14.621Z,4.10
2019-02-15T10:05:19.118Z,3.87
2019-02-15T10:06:23.605Z,3.87
2019-02-15T10:07:28.069Z,4.03
2019-02-15T10:08:32.579Z,4.70
2019-02-15T10:09:37.054Z,4.17
2019-02-15T10:10:41.543Z,4.90
2019-02-15T10:11:46.100Z,5.80
2019-02-15T10:12:51.027Z,8.23
2019-02-15T10:13:55.524Z,6.10
2019-02-15T10:15:00.028Z,5.27
2019-02-15T10:16:04.548Z,4.87
2019-02-15T10:17:09.016Z,4.00
2019-02-15T10:18:13.489Z,4.30
2019-02-15T10:19:22.401Z,4.10
2019-02-15T10:20:24.136Z,4.03
2019-02-15T10:21:28.636Z,4.33
2019-02-15T10:22:33.097Z,3.93
2019-02-15T10:23:37.582Z,4.03
2019-02-15T10:24:42.120Z,3.77
2019-02-15T10:25:46.602Z,3.47
2019-02-15T10:26:51.180Z,4.10
2019-02-15T10:27:55.720Z,4.70
2019-02-15T10:29:00.273Z,3.87
2019-02-15T10:30:12.755Z,3.90
2019-02-15T10:31:17.222Z,3.40
2019-02-15T10:32:21.999Z,3.70
2019-02-15T10:33:26.795Z,3.30
2019-02-15T10:34:31.267Z,3.40
2019-02-15T10:35:35.729Z,3.63
2019-02-15T10:36:40.334Z,3.50
2019-02-15T10:37:44.897Z,3.27
2019-02-15T10:38:49.707Z,3.53
2019-02-15T10:39:54.219Z,3.13
2019-02-15T10:40:58.749Z,3.30
2019-02-15T10:42:03.277Z,3.00
2019-02-15T10:43:07.746Z,3.40
2019-02-15T10:44:12.215Z,3.10
2019-02-15T10:45:16.742Z,2.80
2019-02-15T10:46:21.241Z,2.63
2019-02-15T10:47:25.806Z,2.87
2019-02-15T10:48:30.291Z,2.90
2019-02-15T10:49:34.768Z,2.90
2019-02-15T10:50:39.259Z,2.90
2019-02-15T10:51:43.893Z,3.07
2019-02-15T10:52:48.397Z,2.97
2019-02-15T10:53:53.000Z,3.00
2019-02-15T10:54:57.489Z,3.10
2019-02-15T10:56:01.969Z,2.97
2019-02-15T10:57:06.490Z,2.97
2019-02-15T10:58:11.023Z,2.83
2019-02-15T10:59:15.519Z,2.97
2019-02-15T11:00:21.608Z,2.67
2019-02-15T11:01:26.107Z,2.87
2019-02-15T11:02:30.588Z,2.47
2019-02-15T11:03:36.605Z,2.83
2019-02-15T11:04:41.355Z,2.80
2019-02-15T11:05:45.919Z,2.95
2019-02-15T11:06:50.391Z,2.97
2019-02-15T11:07:54.867Z,2.97
2019-02-15T11:08:59.414Z,2.87
2019-02-15T11:10:05.932Z,2.93
2019-02-15T11:11:10.417Z,2.80
2019-02-15T11:12:14.912Z,2.67
2019-02-15T11:13:19.391Z,3.10
2019-02-15T11:14:23.881Z,2.60
2019-02-15T11:15:28.667Z,2.90
2019-02-15T11:16:33.220Z,2.90
2019-02-15T11:17:37.688Z,2.73
2019-02-15T11:18:42.297Z,2.87
2019-02-15T11:19:46.847Z,2.87
2019-02-15T11:20:51.405Z,2.90
2019-02-15T11:21:55.885Z,2.80
2019-02-15T11:23:00.414Z,2.87
2019-02-15T11:24:04.894Z,3.33
2019-02-15T11:25:11.136Z,4.00
2019-02-15T11:26:24.400Z,3.30
2019-02-15T11:27:21.811Z,2.90
2019-02-15T11:28:26.355Z,3.27
2019-02-15T11:29:30.847Z,3.50
2019-02-15T11:30:35.602Z,3.27
2019-02-15T11:31:40.089Z,3.13
2019-02-15T11:32:44.539Z,3.10
2019-02-15T11:33:49.062Z,3.03
2019-02-15T11:34:53.530Z,2.60
2019-02-15T11:35:58.038Z,3.37
2019-02-15T11:37:02.503Z,3.33
2019-02-15T11:38:07.059Z,3.23
2019-02-15T11:39:11.513Z,3.33
2019-02-15T11:40:16.168Z,3.07
2019-02-15T11:41:20.651Z,2.87
2019-02-15T11:42:25.197Z,2.90
2019-02-15T11:43:29.667Z,2.67
2019-02-15T11:44:34.149Z,2.43
2019-02-15T11:45:38.620Z,2.50
2019-02-15T11:46:43.142Z,2.50
2019-02-15T11:47:47.636Z,2.70
2019-02-15T11:48:52.104Z,2.57
2019-02-15T11:49:56.560Z,2.50
2019-02-15T11:51:01.027Z,2.60
2019-02-15T11:52:05.519Z,2.40
2019-02-15T11:53:09.987Z,2.40
2019-02-15T11:54:23.124Z,2.73
2019-02-15T11:55:20.624Z,2.93
2019-02-15T11:56:25.082Z,2.60
2019-02-15T11:57:29.572Z,2.60
2019-02-15T11:58:34.091Z,2.60
2019-02-15T11:59:38.573Z,2.30
2019-02-15T12:00:43.029Z,2.60
2019-02-15T12:01:47.498Z,2.37
2019-02-15T12:02:52.255Z,2.73
2019-02-15T12:03:56.752Z,2.43
2019-02-15T12:05:01.233Z,2.40
2019-02-15T12:06:05.740Z,2.90
2019-02-15T12:07:10.214Z,2.90
2019-02-15T12:08:14.690Z,2.63
2019-02-15T12:09:19.179Z,3.17
2019-02-15T12:10:23.723Z,2.97
2019-02-15T12:11:28.199Z,2.50
2019-02-15T12:12:32.665Z,3.20
2019-02-15T12:13:37.208Z,2.90
2019-02-15T12:14:41.756Z,2.77
2019-02-15T12:15:46.406Z,3.00
2019-02-15T12:16:50.917Z,2.97
2019-02-15T12:17:55.383Z,2.83
2019-02-15T12:18:59.844Z,2.87
2019-02-15T12:20:06.928Z,2.60
2019-02-15T12:21:11.420Z,2.63
2019-02-15T12:22:15.883Z,2.77
2019-02-15T12:23:20.363Z,2.80
2019-02-15T12:24:24.813Z,3.00
2019-02-15T12:25:29.289Z,3.10
2019-02-15T12:26:33.788Z,2.80
2019-02-15T12:27:38.304Z,2.90
2019-02-15T12:28:42.830Z,3.03
2019-02-15T12:29:47.432Z,3.40
2019-02-15T12:30:52.168Z,3.00
2019-02-15T12:31:56.633Z,3.13
2019-02-15T12:33:01.103Z,2.83
2019-02-15T12:34:07.319Z,2.80
2019-02-15T12:35:11.994Z,3.00
2019-02-15T12:36:16.877Z,3.23
2019-02-15T12:37:21.402Z,3.53
2019-02-15T12:38:25.893Z,3.70
2019-02-15T12:39:30.346Z,3.30
2019-02-15T12:40:34.805Z,3.10
2019-02-15T12:41:39.343Z,3.30
2019-02-15T12:42:43.808Z,3.13
2019-02-15T12:43:48.353Z,3.63
2019-02-15T12:44:52.864Z,3.80
2019-02-15T12:45:57.388Z,4.20
2019-02-15T12:47:01.956Z,3.93
2019-02-15T12:48:06.411Z,4.10
2019-02-15T12:49:10.902Z,3.60
2019-02-15T12:50:20.274Z,3.43
2019-02-15T12:51:24.769Z,3.17
2019-02-15T12:52:29.334Z,3.17
2019-02-15T12:53:33.884Z,3.50
2019-02-15T12:54:38.353Z,3.03
2019-02-15T12:55:42.823Z,3.20
2019-02-15T12:56:47.369Z,4.00
2019-02-15T12:57:51.864Z,3.53
2019-02-15T12:58:56.329Z,3.83
2019-02-15T13:00:00.803Z,3.67
2019-02-15T13:01:05.267Z,3.20
2019-02-15T13:02:09.743Z,3.10
2019-02-15T13:03:14.249Z,3.43
2019-02-15T13:04:18.709Z,3.07
2019-02-15T13:05:23.190Z,3.10
2019-02-15T13:06:28.913Z,3.07
2019-02-15T13:07:33.630Z,2.77
2019-02-15T13:08:38.159Z,3.30
2019-02-15T13:09:42.697Z,3.00
2019-02-15T13:10:47.176Z,4.70
2019-02-15T13:11:51.655Z,3.87
2019-02-15T13:12:56.148Z,4.90
2019-02-15T13:14:00.610Z,4.83
2019-02-15T13:15:06.643Z,4.63
2019-02-15T13:16:11.164Z,3.70
2019-02-15T13:17:24.198Z,3.37
2019-02-15T13:18:21.871Z,2.80
2019-02-15T13:19:26.331Z,2.80
2019-02-15T13:20:30.874Z,2.77
2019-02-15T13:21:35.347Z,2.63
2019-02-15T13:22:39.906Z,2.77
2019-02-15T13:23:44.385Z,2.60
2019-02-15T13:24:48.881Z,2.43
2019-02-15T13:25:53.447Z,2.37
2019-02-15T13:26:58.019Z,2.50
2019-02-15T13:28:02.495Z,2.43
2019-02-15T13:29:06.971Z,2.77
2019-02-15T13:30:16.029Z,2.83
2019-02-15T13:31:20.521Z,2.70
2019-02-15T13:32:25.000Z,2.70
2019-02-15T13:33:29.468Z,2.93
2019-02-15T13:34:33.938Z,2.47
2019-02-15T13:35:38.398Z,2.50
2019-02-15T13:36:42.880Z,2.63
2019-02-15T13:37:47.371Z,2.57
2019-02-15T13:38:51.872Z,2.27
2019-02-15T13:39:56.438Z,2.37
2019-02-15T13:41:00.919Z,2.30
2019-02-15T13:42:05.042Z,2.10
2019-02-15T13:43:09.373Z,2.57
2019-02-15T13:44:14.155Z,2.33
2019-02-15T13:45:18.712Z,2.83
2019-02-15T13:46:23.182Z,2.30
2019-02-15T13:47:34.303Z,2.50
2019-02-15T13:48:33.831Z,2.67
2019-02-15T13:49:38.298Z,2.70
2019-02-15T13:50:42.808Z,2.30
2019-02-15T13:51:47.275Z,2.63
2019-02-15T13:52:51.743Z,2.50
2019-02-15T13:53:56.206Z,2.57
2019-02-15T13:55:00.673Z,2.80
2019-02-15T13:56:05.219Z,2.47
2019-02-15T13:57:09.706Z,2.70
2019-02-15T13:58:14.164Z,2.70
2019-02-15T13:59:18.635Z,2.70
2019-02-15T14:00:23.105Z,3.17
2019-02-15T14:01:27.577Z,3.30
2019-02-15T14:02:32.367Z,3.40
2019-02-15T14:03:36.884Z,3.50
2019-02-15T14:04:41.352Z,3.23
2019-02-15T14:05:45.825Z,2.87
2019-02-15T14:06:55.394Z,2.77
2019-02-15T14:07:59.937Z,2.93
2019-02-15T14:09:05.363Z,3.10
2019-02-15T14:10:11.475Z,3.00
2019-02-15T14:11:15.946Z,2.93
2019-02-15T14:12:20.439Z,2.83
2019-02-15T14:13:24.989Z,2.50
2019-02-15T14:14:29.529Z,3.00
2019-02-15T14:15:33.997Z,2.63
2019-02-15T14:16:38.571Z,2.43
2019-02-15T14:17:46.380Z,2.73
2019-02-15T14:18:49.257Z,2.40
2019-02-15T14:19:53.725Z,2.30
2019-02-15T14:20:58.222Z,2.50
2019-02-15T14:22:02.691Z,2.40
2019-02-15T14:23:07.174Z,2.60
2019-02-15T14:24:11.638Z,2.50
2019-02-15T14:25:16.120Z,2.57
2019-02-15T14:26:20.597Z,2.77